Rorichmoor — V2BV7 — position and weather

sailwx.info

Track history (hours):
 
Tides and Currents Weather Stations Pressure Air Temp Water Temp Dewpoint Dewpoint Depression Visibility Wind Speed Wind Dir Waves Ship Positions

Rorichmoor

Last reported at 2018-Jan-22 08:26 UTC. Time now 2018-Jan-22 08:48 UTC.
Position N 44°19' E 008°30'.

Length 80 m; draft 4.4 m.

Type: Cargo ship. MMSI: 304938000.

Date/timePositionNaut miles runAvg speedWind from/ knotsBaromVisibWave heightAir tempDewpointWater temp
2018-Jan-22 08:26N 44°19' E 008°30'0 0.0
2018-Jan-22 07:56N 44°19' E 008°30'0 0.0
2018-Jan-22 07:26N 44°19' E 008°30'0 0.0
2018-Jan-21 09:17N 44°19' E 008°30'0 0.0
2018-Jan-21 08:53N 44°19' E 008°30'0 0.0
2018-Jan-21 08:17N 44°19' E 008°30'0 0.0
2018-Jan-21 07:59N 44°19' E 008°30'0 0.0
2018-Jan-21 07:29N 44°19' E 008°30'0 0.0
2018-Jan-21 06:59N 44°19' E 008°30'0 0.0
2018-Jan-21 06:29N 44°19' E 008°30'0 0.0
2018-Jan-21 05:59N 44°19' E 008°30'0 0.0
2018-Jan-21 05:29N 44°19' E 008°30'0 0.0
2018-Jan-21 04:59N 44°19' E 008°30'0 0.0
2018-Jan-21 04:29N 44°19' E 008°30'0 0.0
2018-Jan-21 03:59N 44°19' E 008°30'0 0.0
2018-Jan-21 03:29N 44°19' E 008°30'0 0.0
2018-Jan-21 02:59N 44°19' E 008°30'0 0.0
2018-Jan-21 02:29N 44°19' E 008°30'0 0.0
2018-Jan-21 01:59N 44°19' E 008°30'0 0.0
2018-Jan-21 01:29N 44°19' E 008°30'0 0.0
2018-Jan-21 00:59N 44°19' E 008°30'0 0.0
2018-Jan-21 00:29N 44°19' E 008°30'0 0.0
2018-Jan-20 23:59N 44°19' E 008°30'0 0.0
2018-Jan-20 23:29N 44°19' E 008°30'0 0.0
2018-Jan-20 22:59N 44°19' E 008°30'0 0.0
2018-Jan-20 22:29N 44°19' E 008°30'0 0.0
2018-Jan-20 21:59N 44°19' E 008°30'0 0.0
2018-Jan-20 21:29N 44°19' E 008°30'0 0.0
2018-Jan-20 20:59N 44°19' E 008°30'0 0.0
2018-Jan-20 20:29N 44°19' E 008°30'0 0.0
2018-Jan-20 19:59N 44°19' E 008°30'0 0.0
2018-Jan-20 19:29N 44°19' E 008°30'0 0.0
2018-Jan-20 18:59N 44°19' E 008°30'0 0.0
2018-Jan-20 18:23N 44°19' E 008°30'0 0.0
2018-Jan-20 17:59N 44°19' E 008°30'0 0.0
2018-Jan-20 17:29N 44°19' E 008°30'0 0.0
2018-Jan-20 16:53N 44°19' E 008°30'0 0.0
2018-Jan-20 16:29N 44°19' E 008°30'0 0.0
2018-Jan-20 15:59N 44°19' E 008°30'0 0.0
2018-Jan-20 15:29N 44°19' E 008°30'0 0.0
2018-Jan-20 14:59N 44°19' E 008°30'0 0.0
2018-Jan-20 14:23N 44°19' E 008°30'0 0.0
2018-Jan-20 13:59N 44°19' E 008°30'0 0.0
2018-Jan-20 13:29N 44°19' E 008°30'0 0.0
2018-Jan-20 12:59N 44°19' E 008°30'0 0.0
2018-Jan-20 09:50N 44°19' E 008°30'0 0.0
2018-Jan-20 09:26N 44°19' E 008°30'0 0.0
2018-Jan-20 08:56N 44°19' E 008°30'0 0.0
2018-Jan-20 08:26N 44°19' E 008°30'0 0.0
2018-Jan-20 07:50N 44°19' E 008°30'0 0.0
2018-Jan-20 07:26N 44°19' E 008°30'0 0.0
2018-Jan-20 06:56N 44°19' E 008°30'0 0.0
2018-Jan-20 02:17N 44°19' E 008°30'0 0.0
2018-Jan-19 18:32N 44°19' E 008°30'0 0.1
2018-Jan-19 18:26N 44°19' E 008°30'0 0.0
2018-Jan-19 17:56N 44°19' E 008°30'0 0.0
2018-Jan-19 17:26N 44°19' E 008°30'0 0.0
2018-Jan-19 16:56N 44°19' E 008°30'0 0.0
2018-Jan-19 16:30N 44°19' E 008°30'1 1.4
2018-Jan-19 16:00N 44°19' E 008°31'4 8.2
2018-Jan-19 15:30N 44°15' E 008°32'5 9.0
2018-Jan-19 14:59N 44°11' E 008°28'66 8.3
2018-Jan-19 07:02N 43°25' E 007°21'1 9.0
2018-Jan-19 06:58N 43°25' E 007°21'4 8.5
2018-Jan-19 06:30N 43°23' E 007°16'4 8.2
2018-Jan-19 06:00N 43°20' E 007°12'4 8.2
2018-Jan-19 05:31N 43°18' E 007°07'4 8.4
2018-Jan-19 05:00N 43°15' E 007°03'89 8.5
2018-Jan-18 18:33N 43°12' E 005°01'6 9.5
2018-Jan-18 17:56N 43°18' E 004°59'4 9.0
2018-Jan-18 17:30N 43°21' E 004°58'7 5.2
2018-Jan-18 16:11N 43°23' E 004°49'  
2018-Jan-12 14:46N 41°14' E 002°04'3 9.9
2018-Jan-12 14:30N 41°14' E 002°08'  
Track history (hours):
 
Tides and Currents Weather Stations Pressure Air Temp Water Temp Dewpoint Dewpoint Depression Visibility Wind Speed Wind Dir Waves Ship Positions

Rorichmoor

Last reported at 2018-Jan-22 08:26 UTC. Time now 2018-Jan-22 08:48 UTC.
Position N 44°19' E 008°30'.

Length 80 m; draft 4.4 m.

Type: Cargo ship. MMSI: 304938000.

Date/timePositionNaut miles runAvg speedWind from/ knotsBaromVisibWave heightAir tempDewpointWater temp
2018-Jan-22 08:26N 44°19' E 008°30'0 0.0
2018-Jan-22 07:56N 44°19' E 008°30'0 0.0
2018-Jan-22 07:26N 44°19' E 008°30'0 0.0
2018-Jan-21 09:17N 44°19' E 008°30'0 0.0
2018-Jan-21 08:53N 44°19' E 008°30'0 0.0
2018-Jan-21 08:17N 44°19' E 008°30'0 0.0
2018-Jan-21 07:59N 44°19' E 008°30'0 0.0
2018-Jan-21 07:29N 44°19' E 008°30'0 0.0
2018-Jan-21 06:59N 44°19' E 008°30'0 0.0
2018-Jan-21 06:29N 44°19' E 008°30'0 0.0
2018-Jan-21 05:59N 44°19' E 008°30'0 0.0
2018-Jan-21 05:29N 44°19' E 008°30'0 0.0
2018-Jan-21 04:59N 44°19' E 008°30'0 0.0
2018-Jan-21 04:29N 44°19' E 008°30'0 0.0
2018-Jan-21 03:59N 44°19' E 008°30'0 0.0
2018-Jan-21 03:29N 44°19' E 008°30'0 0.0
2018-Jan-21 02:59N 44°19' E 008°30'0 0.0
2018-Jan-21 02:29N 44°19' E 008°30'0 0.0
2018-Jan-21 01:59N 44°19' E 008°30'0 0.0
2018-Jan-21 01:29N 44°19' E 008°30'0 0.0
2018-Jan-21 00:59N 44°19' E 008°30'0 0.0
2018-Jan-21 00:29N 44°19' E 008°30'0 0.0
2018-Jan-20 23:59N 44°19' E 008°30'0 0.0
2018-Jan-20 23:29N 44°19' E 008°30'0 0.0
2018-Jan-20 22:59N 44°19' E 008°30'0 0.0
2018-Jan-20 22:29N 44°19' E 008°30'0 0.0
2018-Jan-20 21:59N 44°19' E 008°30'0 0.0
2018-Jan-20 21:29N 44°19' E 008°30'0 0.0
2018-Jan-20 20:59N 44°19' E 008°30'0 0.0
2018-Jan-20 20:29N 44°19' E 008°30'0 0.0
2018-Jan-20 19:59N 44°19' E 008°30'0 0.0
2018-Jan-20 19:29N 44°19' E 008°30'0 0.0
2018-Jan-20 18:59N 44°19' E 008°30'0 0.0
2018-Jan-20 18:23N 44°19' E 008°30'0 0.0
2018-Jan-20 17:59N 44°19' E 008°30'0 0.0
2018-Jan-20 17:29N 44°19' E 008°30'0 0.0
2018-Jan-20 16:53N 44°19' E 008°30'0 0.0
2018-Jan-20 16:29N 44°19' E 008°30'0 0.0
2018-Jan-20 15:59N 44°19' E 008°30'0 0.0
2018-Jan-20 15:29N 44°19' E 008°30'0 0.0
2018-Jan-20 14:59N 44°19' E 008°30'0 0.0
2018-Jan-20 14:23N 44°19' E 008°30'0 0.0
2018-Jan-20 13:59N 44°19' E 008°30'0 0.0
2018-Jan-20 13:29N 44°19' E 008°30'0 0.0
2018-Jan-20 12:59N 44°19' E 008°30'0 0.0
2018-Jan-20 09:50N 44°19' E 008°30'0 0.0
2018-Jan-20 09:26N 44°19' E 008°30'0 0.0
2018-Jan-20 08:56N 44°19' E 008°30'0 0.0
2018-Jan-20 08:26N 44°19' E 008°30'0 0.0
2018-Jan-20 07:50N 44°19' E 008°30'0 0.0
2018-Jan-20 07:26N 44°19' E 008°30'0 0.0
2018-Jan-20 06:56N 44°19' E 008°30'0 0.0
2018-Jan-20 02:17N 44°19' E 008°30'0 0.0
2018-Jan-19 18:32N 44°19' E 008°30'0 0.1
2018-Jan-19 18:26N 44°19' E 008°30'0 0.0
2018-Jan-19 17:56N 44°19' E 008°30'0 0.0
2018-Jan-19 17:26N 44°19' E 008°30'0 0.0
2018-Jan-19 16:56N 44°19' E 008°30'0 0.0
2018-Jan-19 16:30N 44°19' E 008°30'1 1.4
2018-Jan-19 16:00N 44°19' E 008°31'4 8.2
2018-Jan-19 15:30N 44°15' E 008°32'5 9.0
2018-Jan-19 14:59N 44°11' E 008°28'66 8.3
2018-Jan-19 07:02N 43°25' E 007°21'1 9.0
2018-Jan-19 06:58N 43°25' E 007°21'4 8.5
2018-Jan-19 06:30N 43°23' E 007°16'4 8.2
2018-Jan-19 06:00N 43°20' E 007°12'4 8.2
2018-Jan-19 05:31N 43°18' E 007°07'4 8.4
2018-Jan-19 05:00N 43°15' E 007°03'89 8.5
2018-Jan-18 18:33N 43°12' E 005°01'6 9.5
2018-Jan-18 17:56N 43°18' E 004°59'4 9.0
2018-Jan-18 17:30N 43°21' E 004°58'7 5.2
2018-Jan-18 16:11N 43°23' E 004°49'  
2018-Jan-12 14:46N 41°14' E 002°04'3 9.9
2018-Jan-12 14:30N 41°14' E 002°08'  

Dump ship's entire track history